sensor_id;sensor_type;location;lat;lon;timestamp;P1;durP1;ratioP1;P2;durP2;ratioP2
21894;SDS011;11112;51.270;7.224;2023-03-24T00:00:38;4.25;;;1.88;;
21894;SDS011;11112;51.270;7.224;2023-03-24T00:03:05;3.15;;;1.70;;
21894;SDS011;11112;51.270;7.224;2023-03-24T00:05:33;4.85;;;1.80;;
21894;SDS011;11112;51.270;7.224;2023-03-24T00:08:00;4.18;;;1.90;;
21894;SDS011;11112;51.270;7.224;2023-03-24T00:10:28;4.03;;;1.83;;
21894;SDS011;11112;51.270;7.224;2023-03-24T00:12:58;5.55;;;2.00;;
21894;SDS011;11112;51.270;7.224;2023-03-24T00:15:26;3.83;;;1.40;;
21894;SDS011;11112;51.270;7.224;2023-03-24T00:17:56;3.92;;;1.50;;
21894;SDS011;11112;51.270;7.224;2023-03-24T00:20:24;4.03;;;1.60;;
21894;SDS011;11112;51.270;7.224;2023-03-24T00:22:54;4.00;;;1.67;;
21894;SDS011;11112;51.270;7.224;2023-03-24T00:25:23;5.30;;;1.65;;
21894;SDS011;11112;51.270;7.224;2023-03-24T00:27:53;3.75;;;1.40;;
21894;SDS011;11112;51.270;7.224;2023-03-24T00:30:21;3.95;;;1.77;;
21894;SDS011;11112;51.270;7.224;2023-03-24T00:32:49;4.93;;;1.52;;
21894;SDS011;11112;51.270;7.224;2023-03-24T00:35:18;3.25;;;1.42;;
21894;SDS011;11112;51.270;7.224;2023-03-24T00:37:46;4.10;;;1.40;;
21894;SDS011;11112;51.270;7.224;2023-03-24T00:40:15;4.57;;;1.80;;
21894;SDS011;11112;51.270;7.224;2023-03-24T00:42:45;4.07;;;1.70;;
21894;SDS011;11112;51.270;7.224;2023-03-24T00:45:15;5.75;;;1.80;;
21894;SDS011;11112;51.270;7.224;2023-03-24T00:47:47;4.80;;;1.70;;
21894;SDS011;11112;51.270;7.224;2023-03-24T00:50:19;3.97;;;1.55;;
21894;SDS011;11112;51.270;7.224;2023-03-24T00:52:50;3.45;;;1.55;;
21894;SDS011;11112;51.270;7.224;2023-03-24T00:55:18;3.97;;;1.70;;
21894;SDS011;11112;51.270;7.224;2023-03-24T00:57:46;3.88;;;1.63;;
21894;SDS011;11112;51.270;7.224;2023-03-24T01:00:15;4.45;;;1.60;;
21894;SDS011;11112;51.270;7.224;2023-03-24T01:02:45;4.53;;;1.83;;
21894;SDS011;11112;51.270;7.224;2023-03-24T01:05:19;4.85;;;1.80;;
21894;SDS011;11112;51.270;7.224;2023-03-24T01:07:46;3.40;;;1.60;;
21894;SDS011;11112;51.270;7.224;2023-03-24T01:10:16;4.70;;;2.08;;
21894;SDS011;11112;51.270;7.224;2023-03-24T01:12:50;6.47;;;1.88;;
21894;SDS011;11112;51.270;7.224;2023-03-24T01:15:19;4.57;;;1.80;;
21894;SDS011;11112;51.270;7.224;2023-03-24T01:17:48;4.25;;;1.92;;
21894;SDS011;11112;51.270;7.224;2023-03-24T01:20:19;5.63;;;1.80;;
21894;SDS011;11112;51.270;7.224;2023-03-24T01:22:47;3.38;;;1.73;;
21894;SDS011;11112;51.270;7.224;2023-03-24T01:25:16;4.82;;;1.63;;
21894;SDS011;11112;51.270;7.224;2023-03-24T01:27:46;5.25;;;1.95;;
21894;SDS011;11112;51.270;7.224;2023-03-24T01:30:16;4.32;;;1.65;;
21894;SDS011;11112;51.270;7.224;2023-03-24T01:32:46;6.25;;;1.80;;
21894;SDS011;11112;51.270;7.224;2023-03-24T01:35:17;5.00;;;1.88;;
21894;SDS011;11112;51.270;7.224;2023-03-24T01:37:46;4.78;;;2.00;;
21894;SDS011;11112;51.270;7.224;2023-03-24T01:40:15;3.38;;;1.90;;
21894;SDS011;11112;51.270;7.224;2023-03-24T01:42:46;3.28;;;1.58;;
21894;SDS011;11112;51.270;7.224;2023-03-24T01:45:42;4.07;;;2.00;;
21894;SDS011;11112;51.270;7.224;2023-03-24T01:48:35;4.20;;;2.00;;
21894;SDS011;11112;51.270;7.224;2023-03-24T01:51:10;3.03;;;1.92;;
21894;SDS011;11112;51.270;7.224;2023-03-24T01:56:12;3.78;;;1.70;;
21894;SDS011;11112;51.270;7.224;2023-03-24T01:58:49;5.18;;;1.90;;
21894;SDS011;11112;51.270;7.224;2023-03-24T02:01:19;3.80;;;1.90;;
21894;SDS011;11112;51.270;7.224;2023-03-24T02:03:50;2.88;;;1.73;;
21894;SDS011;11112;51.270;7.224;2023-03-24T02:06:19;4.88;;;1.80;;
21894;SDS011;11112;51.270;7.224;2023-03-24T02:08:51;3.38;;;1.90;;
21894;SDS011;11112;51.270;7.224;2023-03-24T02:11:22;3.17;;;1.73;;
21894;SDS011;11112;51.270;7.224;2023-03-24T02:13:55;2.83;;;1.90;;
21894;SDS011;11112;51.270;7.224;2023-03-24T02:16:27;4.00;;;1.88;;
21894;SDS011;11112;51.270;7.224;2023-03-24T02:19:20;4.00;;;2.05;;
21894;SDS011;11112;51.270;7.224;2023-03-24T02:22:21;4.18;;;1.90;;
21894;SDS011;11112;51.270;7.224;2023-03-24T02:25:31;4.78;;;1.88;;
21894;SDS011;11112;51.270;7.224;2023-03-24T02:28:52;4.20;;;2.00;;
21894;SDS011;11112;51.270;7.224;2023-03-24T02:31:34;3.85;;;2.03;;
21894;SDS011;11112;51.270;7.224;2023-03-24T02:35:02;4.15;;;2.47;;
21894;SDS011;11112;51.270;7.224;2023-03-24T02:38:17;3.75;;;2.22;;
21894;SDS011;11112;51.270;7.224;2023-03-24T02:41:21;4.32;;;2.22;;
21894;SDS011;11112;51.270;7.224;2023-03-24T02:44:00;3.45;;;2.25;;
21894;SDS011;11112;51.270;7.224;2023-03-24T02:46:35;3.55;;;2.33;;
21894;SDS011;11112;51.270;7.224;2023-03-24T02:49:13;5.32;;;2.20;;
21894;SDS011;11112;51.270;7.224;2023-03-24T02:51:49;4.60;;;2.00;;
21894;SDS011;11112;51.270;7.224;2023-03-24T02:54:21;3.75;;;2.30;;
21894;SDS011;11112;51.270;7.224;2023-03-24T02:56:59;3.70;;;2.30;;
21894;SDS011;11112;51.270;7.224;2023-03-24T02:59:32;4.32;;;2.13;;
21894;SDS011;11112;51.270;7.224;2023-03-24T03:02:06;3.75;;;2.28;;
21894;SDS011;11112;51.270;7.224;2023-03-24T03:04:40;3.33;;;2.10;;
21894;SDS011;11112;51.270;7.224;2023-03-24T03:07:14;3.47;;;2.17;;
21894;SDS011;11112;51.270;7.224;2023-03-24T03:09:46;3.67;;;2.25;;
21894;SDS011;11112;51.270;7.224;2023-03-24T03:12:25;3.15;;;2.22;;
21894;SDS011;11112;51.270;7.224;2023-03-24T03:14:57;3.80;;;2.20;;
21894;SDS011;11112;51.270;7.224;2023-03-24T03:17:34;3.33;;;2.30;;
21894;SDS011;11112;51.270;7.224;2023-03-24T03:20:06;4.70;;;2.45;;
21894;SDS011;11112;51.270;7.224;2023-03-24T03:22:38;4.55;;;2.30;;
21894;SDS011;11112;51.270;7.224;2023-03-24T03:25:19;5.43;;;2.40;;
21894;SDS011;11112;51.270;7.224;2023-03-24T03:27:51;3.58;;;2.17;;
21894;SDS011;11112;51.270;7.224;2023-03-24T03:30:21;4.15;;;2.35;;
21894;SDS011;11112;51.270;7.224;2023-03-24T03:32:54;3.35;;;2.20;;
21894;SDS011;11112;51.270;7.224;2023-03-24T03:35:28;3.58;;;2.35;;
21894;SDS011;11112;51.270;7.224;2023-03-24T03:38:03;5.55;;;2.40;;
21894;SDS011;11112;51.270;7.224;2023-03-24T03:40:40;3.15;;;2.40;;
21894;SDS011;11112;51.270;7.224;2023-03-24T03:43:16;3.47;;;2.50;;
21894;SDS011;11112;51.270;7.224;2023-03-24T03:45:44;3.70;;;2.22;;
21894;SDS011;11112;51.270;7.224;2023-03-24T03:48:11;4.93;;;2.38;;
21894;SDS011;11112;51.270;7.224;2023-03-24T03:50:39;3.53;;;2.45;;
21894;SDS011;11112;51.270;7.224;2023-03-24T03:53:06;3.33;;;2.15;;
21894;SDS011;11112;51.270;7.224;2023-03-24T03:55:35;4.43;;;2.40;;
21894;SDS011;11112;51.270;7.224;2023-03-24T03:58:02;5.57;;;2.60;;
21894;SDS011;11112;51.270;7.224;2023-03-24T04:00:31;4.78;;;2.80;;
21894;SDS011;11112;51.270;7.224;2023-03-24T04:03:12;3.17;;;2.15;;
21894;SDS011;11112;51.270;7.224;2023-03-24T04:05:54;3.42;;;2.40;;
21894;SDS011;11112;51.270;7.224;2023-03-24T04:08:32;4.72;;;2.47;;
21894;SDS011;11112;51.270;7.224;2023-03-24T04:11:21;4.03;;;2.70;;
21894;SDS011;11112;51.270;7.224;2023-03-24T04:14:02;4.25;;;2.58;;
21894;SDS011;11112;51.270;7.224;2023-03-24T04:16:49;5.70;;;3.00;;
21894;SDS011;11112;51.270;7.224;2023-03-24T04:19:29;4.43;;;2.80;;
21894;SDS011;11112;51.270;7.224;2023-03-24T04:22:14;4.53;;;2.50;;
21894;SDS011;11112;51.270;7.224;2023-03-24T04:24:51;4.53;;;3.13;;
21894;SDS011;11112;51.270;7.224;2023-03-24T04:27:24;5.10;;;2.80;;
21894;SDS011;11112;51.270;7.224;2023-03-24T04:30:04;4.57;;;3.13;;
21894;SDS011;11112;51.270;7.224;2023-03-24T04:32:43;5.32;;;3.30;;
21894;SDS011;11112;51.270;7.224;2023-03-24T04:35:16;4.75;;;3.00;;
21894;SDS011;11112;51.270;7.224;2023-03-24T04:37:55;5.65;;;3.10;;
21894;SDS011;11112;51.270;7.224;2023-03-24T04:40:28;3.78;;;2.80;;
21894;SDS011;11112;51.270;7.224;2023-03-24T04:42:58;4.70;;;3.10;;
21894;SDS011;11112;51.270;7.224;2023-03-24T04:45:29;7.55;;;2.70;;
21894;SDS011;11112;51.270;7.224;2023-03-24T04:48:02;4.22;;;3.05;;
21894;SDS011;11112;51.270;7.224;2023-03-24T04:50:37;4.93;;;3.05;;
21894;SDS011;11112;51.270;7.224;2023-03-24T04:53:10;4.30;;;3.10;;
21894;SDS011;11112;51.270;7.224;2023-03-24T04:55:47;4.18;;;3.00;;
21894;SDS011;11112;51.270;7.224;2023-03-24T04:58:24;5.47;;;2.85;;
21894;SDS011;11112;51.270;7.224;2023-03-24T05:00:51;4.00;;;2.50;;
21894;SDS011;11112;51.270;7.224;2023-03-24T05:03:21;3.78;;;2.50;;
21894;SDS011;11112;51.270;7.224;2023-03-24T05:05:48;3.47;;;2.33;;
21894;SDS011;11112;51.270;7.224;2023-03-24T05:08:17;3.70;;;2.25;;
21894;SDS011;11112;51.270;7.224;2023-03-24T05:10:46;5.70;;;2.50;;
21894;SDS011;11112;51.270;7.224;2023-03-24T05:13:13;3.00;;;2.03;;
21894;SDS011;11112;51.270;7.224;2023-03-24T05:15:41;3.28;;;1.80;;
21894;SDS011;11112;51.270;7.224;2023-03-24T05:18:11;4.00;;;1.65;;
21894;SDS011;11112;51.270;7.224;2023-03-24T05:20:39;4.55;;;2.20;;
21894;SDS011;11112;51.270;7.224;2023-03-24T05:23:06;3.10;;;1.52;;
21894;SDS011;11112;51.270;7.224;2023-03-24T05:25:33;5.40;;;1.77;;
21894;SDS011;11112;51.270;7.224;2023-03-24T05:28:00;3.42;;;1.70;;
21894;SDS011;11112;51.270;7.224;2023-03-24T05:30:28;4.22;;;2.15;;
21894;SDS011;11112;51.270;7.224;2023-03-24T05:32:55;4.50;;;2.15;;
21894;SDS011;11112;51.270;7.224;2023-03-24T05:35:23;2.80;;;1.80;;
21894;SDS011;11112;51.270;7.224;2023-03-24T05:37:52;5.43;;;2.00;;
21894;SDS011;11112;51.270;7.224;2023-03-24T05:40:20;6.93;;;1.88;;
21894;SDS011;11112;51.270;7.224;2023-03-24T05:42:47;3.33;;;1.80;;
21894;SDS011;11112;51.270;7.224;2023-03-24T05:45:15;2.92;;;1.67;;
21894;SDS011;11112;51.270;7.224;2023-03-24T05:47:43;3.00;;;1.58;;
21894;SDS011;11112;51.270;7.224;2023-03-24T05:50:11;3.72;;;1.73;;
21894;SDS011;11112;51.270;7.224;2023-03-24T05:52:38;3.90;;;1.55;;
21894;SDS011;11112;51.270;7.224;2023-03-24T05:55:07;3.42;;;1.38;;
21894;SDS011;11112;51.270;7.224;2023-03-24T05:57:35;4.10;;;1.45;;
21894;SDS011;11112;51.270;7.224;2023-03-24T06:00:02;2.97;;;1.30;;
21894;SDS011;11112;51.270;7.224;2023-03-24T06:02:31;4.72;;;1.23;;
21894;SDS011;11112;51.270;7.224;2023-03-24T06:04:59;4.03;;;1.45;;
21894;SDS011;11112;51.270;7.224;2023-03-24T06:07:26;5.88;;;1.50;;
21894;SDS011;11112;51.270;7.224;2023-03-24T06:09:54;5.50;;;1.30;;
21894;SDS011;11112;51.270;7.224;2023-03-24T06:12:23;3.38;;;1.08;;
21894;SDS011;11112;51.270;7.224;2023-03-24T06:14:50;4.57;;;1.02;;
21894;SDS011;11112;51.270;7.224;2023-03-24T06:17:30;4.60;;;1.33;;
21894;SDS011;11112;51.270;7.224;2023-03-24T06:19:58;3.35;;;1.13;;
21894;SDS011;11112;51.270;7.224;2023-03-24T06:22:30;3.75;;;1.20;;
21894;SDS011;11112;51.270;7.224;2023-03-24T06:24:58;3.72;;;1.00;;
21894;SDS011;11112;51.270;7.224;2023-03-24T06:27:27;7.55;;;1.50;;
21894;SDS011;11112;51.270;7.224;2023-03-24T06:29:55;6.10;;;1.30;;
21894;SDS011;11112;51.270;7.224;2023-03-24T06:32:23;3.75;;;1.08;;
21894;SDS011;11112;51.270;7.224;2023-03-24T06:34:50;7.10;;;1.30;;
21894;SDS011;11112;51.270;7.224;2023-03-24T06:37:20;4.97;;;1.15;;
21894;SDS011;11112;51.270;7.224;2023-03-24T06:39:48;5.65;;;1.30;;
21894;SDS011;11112;51.270;7.224;2023-03-24T06:42:16;5.72;;;1.20;;
21894;SDS011;11112;51.270;7.224;2023-03-24T06:44:47;7.15;;;1.65;;
21894;SDS011;11112;51.270;7.224;2023-03-24T06:47:15;6.30;;;1.45;;
21894;SDS011;11112;51.270;7.224;2023-03-24T06:49:42;7.57;;;1.55;;
21894;SDS011;11112;51.270;7.224;2023-03-24T06:52:10;5.40;;;1.50;;
21894;SDS011;11112;51.270;7.224;2023-03-24T06:54:37;6.70;;;1.50;;
21894;SDS011;11112;51.270;7.224;2023-03-24T06:57:04;9.02;;;1.83;;
21894;SDS011;11112;51.270;7.224;2023-03-24T06:59:32;8.18;;;1.42;;
21894;SDS011;11112;51.270;7.224;2023-03-24T07:02:00;6.38;;;1.42;;
21894;SDS011;11112;51.270;7.224;2023-03-24T07:04:27;7.50;;;2.13;;
21894;SDS011;11112;51.270;7.224;2023-03-24T07:07:00;8.13;;;1.93;;
21894;SDS011;11112;51.270;7.224;2023-03-24T07:09:28;7.38;;;2.00;;
21894;SDS011;11112;51.270;7.224;2023-03-24T07:11:56;7.88;;;1.92;;
21894;SDS011;11112;51.270;7.224;2023-03-24T07:14:24;7.20;;;1.50;;
21894;SDS011;11112;51.270;7.224;2023-03-24T07:16:51;8.02;;;1.70;;
21894;SDS011;11112;51.270;7.224;2023-03-24T07:19:20;6.72;;;1.42;;
21894;SDS011;11112;51.270;7.224;2023-03-24T07:21:47;8.85;;;1.98;;
21894;SDS011;11112;51.270;7.224;2023-03-24T07:24:15;9.05;;;2.40;;
21894;SDS011;11112;51.270;7.224;2023-03-24T07:26:42;9.07;;;1.85;;
21894;SDS011;11112;51.270;7.224;2023-03-24T07:29:09;8.75;;;1.70;;
21894;SDS011;11112;51.270;7.224;2023-03-24T07:31:37;10.98;;;1.73;;
21894;SDS011;11112;51.270;7.224;2023-03-24T07:34:04;10.10;;;1.88;;
21894;SDS011;11112;51.270;7.224;2023-03-24T07:36:33;6.88;;;1.60;;
21894;SDS011;11112;51.270;7.224;2023-03-24T07:39:00;10.30;;;2.33;;
21894;SDS011;11112;51.270;7.224;2023-03-24T07:41:29;9.00;;;1.50;;
21894;SDS011;11112;51.270;7.224;2023-03-24T07:43:56;5.82;;;1.70;;
21894;SDS011;11112;51.270;7.224;2023-03-24T07:46:24;9.75;;;1.70;;
21894;SDS011;11112;51.270;7.224;2023-03-24T07:48:54;6.93;;;1.45;;
21894;SDS011;11112;51.270;7.224;2023-03-24T07:51:21;8.02;;;1.80;;
21894;SDS011;11112;51.270;7.224;2023-03-24T07:53:51;6.35;;;1.50;;
21894;SDS011;11112;51.270;7.224;2023-03-24T08:00:00;5.97;;;1.67;;
21894;SDS011;11112;51.270;7.224;2023-03-24T08:02:38;11.20;;;2.38;;
21894;SDS011;11112;51.270;7.224;2023-03-24T08:05:05;8.80;;;1.95;;
21894;SDS011;11112;51.270;7.224;2023-03-24T08:07:38;8.57;;;2.20;;
21894;SDS011;11112;51.270;7.224;2023-03-24T08:10:09;10.77;;;1.98;;
21894;SDS011;11112;51.270;7.224;2023-03-24T08:12:39;9.98;;;2.70;;
21894;SDS011;11112;51.270;7.224;2023-03-24T08:15:09;10.75;;;2.30;;
21894;SDS011;11112;51.270;7.224;2023-03-24T08:17:51;9.48;;;2.40;;
21894;SDS011;11112;51.270;7.224;2023-03-24T08:20:20;10.80;;;2.33;;
21894;SDS011;11112;51.270;7.224;2023-03-24T08:22:49;10.48;;;2.53;;
21894;SDS011;11112;51.270;7.224;2023-03-24T08:25:20;11.73;;;2.75;;
21894;SDS011;11112;51.270;7.224;2023-03-24T08:27:50;9.20;;;2.30;;
21894;SDS011;11112;51.270;7.224;2023-03-24T08:30:19;11.90;;;2.70;;
21894;SDS011;11112;51.270;7.224;2023-03-24T08:32:49;12.85;;;2.65;;
21894;SDS011;11112;51.270;7.224;2023-03-24T08:35:20;10.73;;;2.60;;
21894;SDS011;11112;51.270;7.224;2023-03-24T08:37:51;15.23;;;3.17;;
21894;SDS011;11112;51.270;7.224;2023-03-24T08:40:20;12.07;;;2.95;;
21894;SDS011;11112;51.270;7.224;2023-03-24T08:42:49;13.00;;;2.97;;
21894;SDS011;11112;51.270;7.224;2023-03-24T08:45:20;12.43;;;3.67;;
21894;SDS011;11112;51.270;7.224;2023-03-24T08:47:51;12.93;;;2.90;;
21894;SDS011;11112;51.270;7.224;2023-03-24T08:50:21;13.85;;;3.13;;
21894;SDS011;11112;51.270;7.224;2023-03-24T08:52:53;12.85;;;2.95;;
21894;SDS011;11112;51.270;7.224;2023-03-24T08:55:30;14.75;;;3.13;;
21894;SDS011;11112;51.270;7.224;2023-03-24T08:57:57;16.60;;;3.15;;
21894;SDS011;11112;51.270;7.224;2023-03-24T09:00:25;10.85;;;2.72;;
21894;SDS011;11112;51.270;7.224;2023-03-24T09:02:53;9.38;;;2.67;;
21894;SDS011;11112;51.270;7.224;2023-03-24T09:05:24;10.10;;;2.65;;
21894;SDS011;11112;51.270;7.224;2023-03-24T09:07:51;10.82;;;2.80;;
21894;SDS011;11112;51.270;7.224;2023-03-24T09:10:20;10.90;;;2.40;;
21894;SDS011;11112;51.270;7.224;2023-03-24T09:12:49;10.60;;;2.80;;
21894;SDS011;11112;51.270;7.224;2023-03-24T09:15:19;10.48;;;2.35;;
21894;SDS011;11112;51.270;7.224;2023-03-24T09:17:46;9.80;;;2.55;;
21894;SDS011;11112;51.270;7.224;2023-03-24T09:20:15;12.32;;;2.70;;
21894;SDS011;11112;51.270;7.224;2023-03-24T09:22:44;10.13;;;2.58;;
21894;SDS011;11112;51.270;7.224;2023-03-24T09:25:13;11.35;;;2.92;;
21894;SDS011;11112;51.270;7.224;2023-03-24T09:27:45;17.60;;;3.03;;
21894;SDS011;11112;51.270;7.224;2023-03-24T09:30:16;10.00;;;2.80;;
21894;SDS011;11112;51.270;7.224;2023-03-24T09:32:44;10.88;;;3.00;;
21894;SDS011;11112;51.270;7.224;2023-03-24T09:35:11;11.90;;;2.95;;
21894;SDS011;11112;51.270;7.224;2023-03-24T09:37:40;12.40;;;2.83;;
21894;SDS011;11112;51.270;7.224;2023-03-24T09:40:14;12.35;;;2.55;;
21894;SDS011;11112;51.270;7.224;2023-03-24T09:42:48;10.60;;;2.45;;
21894;SDS011;11112;51.270;7.224;2023-03-24T09:45:22;13.77;;;2.58;;
21894;SDS011;11112;51.270;7.224;2023-03-24T09:47:54;11.48;;;2.40;;
21894;SDS011;11112;51.270;7.224;2023-03-24T09:50:26;13.50;;;2.65;;
21894;SDS011;11112;51.270;7.224;2023-03-24T09:53:01;10.15;;;2.40;;
21894;SDS011;11112;51.270;7.224;2023-03-24T09:55:34;13.52;;;3.08;;
21894;SDS011;11112;51.270;7.224;2023-03-24T09:58:06;10.00;;;2.33;;
21894;SDS011;11112;51.270;7.224;2023-03-24T10:00:39;12.18;;;2.40;;
21894;SDS011;11112;51.270;7.224;2023-03-24T10:03:11;11.93;;;2.47;;
21894;SDS011;11112;51.270;7.224;2023-03-24T10:05:47;12.68;;;2.45;;
21894;SDS011;11112;51.270;7.224;2023-03-24T10:08:20;12.33;;;2.93;;
21894;SDS011;11112;51.270;7.224;2023-03-24T10:10:56;10.38;;;2.55;;
21894;SDS011;11112;51.270;7.224;2023-03-24T10:13:50;11.75;;;2.85;;
21894;SDS011;11112;51.270;7.224;2023-03-24T10:16:31;12.38;;;2.70;;
21894;SDS011;11112;51.270;7.224;2023-03-24T10:19:08;15.95;;;2.90;;
21894;SDS011;11112;51.270;7.224;2023-03-24T10:21:51;12.05;;;2.70;;
21894;SDS011;11112;51.270;7.224;2023-03-24T10:24:26;12.98;;;2.80;;
21894;SDS011;11112;51.270;7.224;2023-03-24T10:27:02;13.82;;;3.00;;
21894;SDS011;11112;51.270;7.224;2023-03-24T10:29:38;10.52;;;3.00;;
21894;SDS011;11112;51.270;7.224;2023-03-24T10:32:09;14.80;;;2.92;;
21894;SDS011;11112;51.270;7.224;2023-03-24T10:34:44;12.93;;;3.00;;
21894;SDS011;11112;51.270;7.224;2023-03-24T10:37:15;10.13;;;2.92;;
21894;SDS011;11112;51.270;7.224;2023-03-24T10:39:44;11.02;;;2.70;;
21894;SDS011;11112;51.270;7.224;2023-03-24T10:42:13;9.98;;;2.20;;
21894;SDS011;11112;51.270;7.224;2023-03-24T10:44:47;10.93;;;2.45;;
21894;SDS011;11112;51.270;7.224;2023-03-24T10:47:17;11.02;;;2.30;;
21894;SDS011;11112;51.270;7.224;2023-03-24T10:49:51;12.30;;;2.47;;
21894;SDS011;11112;51.270;7.224;2023-03-24T10:54:52;12.45;;;2.38;;
21894;SDS011;11112;51.270;7.224;2023-03-24T10:57:25;9.65;;;2.30;;
21894;SDS011;11112;51.270;7.224;2023-03-24T11:00:00;14.45;;;2.28;;
21894;SDS011;11112;51.270;7.224;2023-03-24T11:02:37;13.23;;;2.30;;
21894;SDS011;11112;51.270;7.224;2023-03-24T11:05:12;9.75;;;2.40;;
21894;SDS011;11112;51.270;7.224;2023-03-24T11:11:26;9.55;;;2.08;;
21894;SDS011;11112;51.270;7.224;2023-03-24T11:14:44;9.73;;;2.13;;
21894;SDS011;11112;51.270;7.224;2023-03-24T11:17:15;7.40;;;2.20;;
21894;SDS011;11112;51.270;7.224;2023-03-24T11:20:24;10.23;;;2.22;;
21894;SDS011;11112;51.270;7.224;2023-03-24T11:23:32;10.13;;;2.30;;
21894;SDS011;11112;51.270;7.224;2023-03-24T11:26:23;10.75;;;2.28;;
21894;SDS011;11112;51.270;7.224;2023-03-24T11:35:34;9.80;;;1.80;;
21894;SDS011;11112;51.270;7.224;2023-03-24T11:38:37;9.93;;;1.63;;
21894;SDS011;11112;51.270;7.224;2023-03-24T11:42:11;9.93;;;1.83;;
21894;SDS011;11112;51.270;7.224;2023-03-24T11:48:32;11.57;;;1.83;;
21894;SDS011;11112;51.270;7.224;2023-03-24T11:51:20;12.98;;;2.00;;
21894;SDS011;11112;51.270;7.224;2023-03-24T11:54:11;8.63;;;1.45;;
21894;SDS011;11112;51.270;7.224;2023-03-24T11:57:03;9.68;;;1.70;;
21894;SDS011;11112;51.270;7.224;2023-03-24T11:59:47;9.70;;;2.00;;
21894;SDS011;11112;51.270;7.224;2023-03-24T12:02:23;11.13;;;2.00;;
21894;SDS011;11112;51.270;7.224;2023-03-24T12:05:15;8.98;;;2.03;;
21894;SDS011;11112;51.270;7.224;2023-03-24T12:08:08;10.70;;;2.13;;
21894;SDS011;11112;51.270;7.224;2023-03-24T12:11:00;8.98;;;2.13;;
21894;SDS011;11112;51.270;7.224;2023-03-24T12:13:40;10.68;;;2.13;;
21894;SDS011;11112;51.270;7.224;2023-03-24T12:16:24;9.10;;;1.77;;
21894;SDS011;11112;51.270;7.224;2023-03-24T12:19:11;13.73;;;2.40;;
21894;SDS011;11112;51.270;7.224;2023-03-24T12:22:04;9.35;;;1.77;;
21894;SDS011;11112;51.270;7.224;2023-03-24T12:24:48;9.95;;;1.80;;
21894;SDS011;11112;51.270;7.224;2023-03-24T12:27:45;8.80;;;1.58;;
21894;SDS011;11112;51.270;7.224;2023-03-24T12:30:23;12.75;;;1.63;;
21894;SDS011;11112;51.270;7.224;2023-03-24T12:32:58;8.00;;;1.75;;
21894;SDS011;11112;51.270;7.224;2023-03-24T12:35:50;8.50;;;1.55;;
21894;SDS011;11112;51.270;7.224;2023-03-24T12:38:49;8.52;;;1.80;;
21894;SDS011;11112;51.270;7.224;2023-03-24T12:41:30;7.22;;;1.70;;
21894;SDS011;11112;51.270;7.224;2023-03-24T12:47:34;8.18;;;1.63;;
21894;SDS011;11112;51.270;7.224;2023-03-24T12:50:24;11.00;;;2.22;;
21894;SDS011;11112;51.270;7.224;2023-03-24T12:53:05;8.60;;;1.98;;
21894;SDS011;11112;51.270;7.224;2023-03-24T12:56:10;12.75;;;1.88;;
21894;SDS011;11112;51.270;7.224;2023-03-24T12:58:43;10.75;;;1.77;;
21894;SDS011;11112;51.270;7.224;2023-03-24T13:01:18;9.10;;;1.65;;
21894;SDS011;11112;51.270;7.224;2023-03-24T13:03:54;8.40;;;1.50;;
21894;SDS011;11112;51.270;7.224;2023-03-24T13:06:31;6.35;;;1.42;;
21894;SDS011;11112;51.270;7.224;2023-03-24T13:09:04;7.13;;;1.65;;
21894;SDS011;11112;51.270;7.224;2023-03-24T13:11:45;10.02;;;1.92;;
21894;SDS011;11112;51.270;7.224;2023-03-24T13:14:22;10.15;;;1.45;;
21894;SDS011;11112;51.270;7.224;2023-03-24T13:16:59;7.90;;;1.60;;
21894;SDS011;11112;51.270;7.224;2023-03-24T13:19:33;7.90;;;1.60;;
21894;SDS011;11112;51.270;7.224;2023-03-24T13:22:03;10.13;;;1.50;;
21894;SDS011;11112;51.270;7.224;2023-03-24T13:24:41;8.48;;;1.80;;
21894;SDS011;11112;51.270;7.224;2023-03-24T13:27:13;8.18;;;1.60;;
21894;SDS011;11112;51.270;7.224;2023-03-24T13:29:51;7.55;;;1.33;;
21894;SDS011;11112;51.270;7.224;2023-03-24T13:32:45;10.68;;;1.90;;
21894;SDS011;11112;51.270;7.224;2023-03-24T13:35:21;9.40;;;1.65;;
21894;SDS011;11112;51.270;7.224;2023-03-24T13:38:05;15.70;;;1.85;;
21894;SDS011;11112;51.270;7.224;2023-03-24T13:40:46;6.28;;;1.40;;
21894;SDS011;11112;51.270;7.224;2023-03-24T13:43:24;11.20;;;1.63;;
21894;SDS011;11112;51.270;7.224;2023-03-24T13:45:57;8.82;;;1.63;;
21894;SDS011;11112;51.270;7.224;2023-03-24T13:48:34;9.07;;;1.45;;
21894;SDS011;11112;51.270;7.224;2023-03-24T13:51:13;9.23;;;1.70;;
21894;SDS011;11112;51.270;7.224;2023-03-24T13:53:45;10.73;;;1.50;;
21894;SDS011;11112;51.270;7.224;2023-03-24T13:56:24;7.97;;;1.73;;
21894;SDS011;11112;51.270;7.224;2023-03-24T13:59:08;8.00;;;1.45;;
21894;SDS011;11112;51.270;7.224;2023-03-24T14:05:09;6.88;;;1.20;;
21894;SDS011;11112;51.270;7.224;2023-03-24T14:07:43;7.93;;;1.42;;
21894;SDS011;11112;51.270;7.224;2023-03-24T14:10:28;10.05;;;1.52;;
21894;SDS011;11112;51.270;7.224;2023-03-24T14:13:18;7.72;;;1.60;;
21894;SDS011;11112;51.270;7.224;2023-03-24T14:16:01;13.90;;;1.90;;
21894;SDS011;11112;51.270;7.224;2023-03-24T14:19:09;5.75;;;1.30;;
21894;SDS011;11112;51.270;7.224;2023-03-24T14:21:50;7.40;;;1.17;;
21894;SDS011;11112;51.270;7.224;2023-03-24T14:24:36;5.95;;;1.35;;
21894;SDS011;11112;51.270;7.224;2023-03-24T14:30:01;6.95;;;1.13;;
21894;SDS011;11112;51.270;7.224;2023-03-24T14:32:44;8.00;;;1.30;;
21894;SDS011;11112;51.270;7.224;2023-03-24T14:35:21;8.32;;;1.50;;
21894;SDS011;11112;51.270;7.224;2023-03-24T14:37:53;10.57;;;1.30;;
21894;SDS011;11112;51.270;7.224;2023-03-24T14:40:25;6.88;;;1.10;;
21894;SDS011;11112;51.270;7.224;2023-03-24T14:43:03;5.30;;;1.20;;
21894;SDS011;11112;51.270;7.224;2023-03-24T14:51:33;6.93;;;1.27;;
21894;SDS011;11112;51.270;7.224;2023-03-24T14:54:10;6.30;;;1.10;;
21894;SDS011;11112;51.270;7.224;2023-03-24T14:56:42;8.90;;;1.40;;
21894;SDS011;11112;51.270;7.224;2023-03-24T14:59:18;5.03;;;0.95;;
21894;SDS011;11112;51.270;7.224;2023-03-24T15:01:58;6.88;;;1.00;;
21894;SDS011;11112;51.270;7.224;2023-03-24T15:04:32;7.43;;;1.35;;
21894;SDS011;11112;51.270;7.224;2023-03-24T15:07:03;9.02;;;1.20;;
21894;SDS011;11112;51.270;7.224;2023-03-24T15:09:34;9.02;;;1.13;;
21894;SDS011;11112;51.270;7.224;2023-03-24T15:12:03;7.25;;;1.48;;
21894;SDS011;11112;51.270;7.224;2023-03-24T15:14:31;6.72;;;1.30;;
21894;SDS011;11112;51.270;7.224;2023-03-24T15:17:02;8.57;;;1.35;;
21894;SDS011;11112;51.270;7.224;2023-03-24T15:19:40;9.13;;;1.40;;
21894;SDS011;11112;51.270;7.224;2023-03-24T15:22:08;5.78;;;1.42;;
21894;SDS011;11112;51.270;7.224;2023-03-24T15:24:40;5.95;;;1.40;;
21894;SDS011;11112;51.270;7.224;2023-03-24T15:27:22;8.43;;;1.52;;
21894;SDS011;11112;51.270;7.224;2023-03-24T15:29:55;9.90;;;1.42;;
21894;SDS011;11112;51.270;7.224;2023-03-24T15:32:28;7.95;;;1.40;;
21894;SDS011;11112;51.270;7.224;2023-03-24T15:35:05;9.70;;;1.20;;
21894;SDS011;11112;51.270;7.224;2023-03-24T15:37:41;6.55;;;1.38;;
21894;SDS011;11112;51.270;7.224;2023-03-24T15:40:35;6.70;;;1.40;;
21894;SDS011;11112;51.270;7.224;2023-03-24T15:43:13;7.87;;;1.83;;
21894;SDS011;11112;51.270;7.224;2023-03-24T15:45:45;7.07;;;1.50;;
21894;SDS011;11112;51.270;7.224;2023-03-24T15:48:17;8.40;;;1.42;;
21894;SDS011;11112;51.270;7.224;2023-03-24T15:50:58;8.52;;;1.30;;
21894;SDS011;11112;51.270;7.224;2023-03-24T15:53:27;6.55;;;1.17;;
21894;SDS011;11112;51.270;7.224;2023-03-24T15:56:00;4.85;;;1.13;;
21894;SDS011;11112;51.270;7.224;2023-03-24T15:58:41;5.53;;;1.30;;
21894;SDS011;11112;51.270;7.224;2023-03-24T16:01:13;5.80;;;1.35;;
21894;SDS011;11112;51.270;7.224;2023-03-24T16:03:46;4.95;;;1.45;;
21894;SDS011;11112;51.270;7.224;2023-03-24T16:06:20;4.75;;;1.10;;
21894;SDS011;11112;51.270;7.224;2023-03-24T16:08:57;6.88;;;1.40;;